createdAt,value
2023-04-02T00:01:27.741Z,0.50
2023-04-02T00:04:22.351Z,0.70
2023-04-02T00:07:18.134Z,0.70
2023-04-02T00:09:46.225Z,0.60
2023-04-02T00:12:18.025Z,0.57
2023-04-02T00:14:52.448Z,0.70
2023-04-02T00:17:22.029Z,0.60
2023-04-02T00:19:56.316Z,0.60
2023-04-02T00:22:29.155Z,0.60
2023-04-02T00:24:58.309Z,0.60
2023-04-02T00:27:26.169Z,0.80
2023-04-02T00:29:56.407Z,0.50
2023-04-02T00:32:27.510Z,0.70
2023-04-02T00:34:57.923Z,0.70
2023-04-02T00:37:28.748Z,0.57
2023-04-02T00:40:06.665Z,0.50
2023-04-02T00:42:35.958Z,0.70
2023-04-02T00:45:05.021Z,0.40
2023-04-02T00:47:35.995Z,0.60
2023-04-02T00:50:19.683Z,0.40
2023-04-02T00:52:51.123Z,0.60
2023-04-02T00:55:24.071Z,0.50
2023-04-02T00:57:52.948Z,0.70
2023-04-02T01:00:24.541Z,0.60
2023-04-02T01:03:29.773Z,0.80
2023-04-02T01:06:04.074Z,0.70
2023-04-02T01:08:45.032Z,0.60
2023-04-02T01:11:27.029Z,0.50
2023-04-02T01:14:03.360Z,0.50
2023-04-02T01:16:42.227Z,0.60
2023-04-02T01:19:29.464Z,0.40
2023-04-02T01:22:09.071Z,0.57
2023-04-02T01:24:38.363Z,0.60
2023-04-02T01:27:09.944Z,0.50
2023-04-02T01:29:45.342Z,0.50
2023-04-02T01:32:16.010Z,0.40
2023-04-02T01:34:46.745Z,0.57
2023-04-02T01:37:25.702Z,0.63
2023-04-02T01:40:20.777Z,0.50
2023-04-02T01:42:57.268Z,0.50
2023-04-02T01:45:27.025Z,0.30
2023-04-02T01:47:55.431Z,0.50
2023-04-02T01:50:31.429Z,0.53
2023-04-02T01:53:02.262Z,0.40
2023-04-02T01:55:36.379Z,0.40
2023-04-02T01:58:05.660Z,0.40
2023-04-02T02:00:38.323Z,0.50
2023-04-02T02:03:08.673Z,0.50
2023-04-02T02:05:37.441Z,0.50
2023-04-02T02:08:06.605Z,0.70
2023-04-02T02:10:36.493Z,0.60
2023-04-02T02:13:05.032Z,0.50
2023-04-02T02:15:37.266Z,0.60
2023-04-02T02:18:08.071Z,0.50
2023-04-02T02:20:36.759Z,0.50
2023-04-02T02:23:05.861Z,0.53
2023-04-02T02:25:36.065Z,0.47
2023-04-02T02:28:08.825Z,0.57
2023-04-02T02:30:42.873Z,0.43
2023-04-02T02:33:17.265Z,0.50
2023-04-02T02:35:53.778Z,0.70
2023-04-02T02:38:48.466Z,0.40
2023-04-02T02:41:34.394Z,0.60
2023-04-02T02:44:11.397Z,0.50
2023-04-02T02:46:45.938Z,0.60
2023-04-02T02:49:18.234Z,0.40
2023-04-02T02:51:49.796Z,0.50
2023-04-02T02:54:23.909Z,0.40
2023-04-02T02:56:55.836Z,0.50
2023-04-02T02:59:24.829Z,0.60
2023-04-02T03:01:55.460Z,0.50
2023-04-02T03:04:24.498Z,0.40
2023-04-02T03:06:58.448Z,0.40
2023-04-02T03:09:37.341Z,0.60
2023-04-02T03:12:11.167Z,0.50
2023-04-02T03:14:44.881Z,1.17
2023-04-02T03:17:20.399Z,0.50
2023-04-02T03:19:53.651Z,0.50
2023-04-02T03:22:32.015Z,0.60
2023-04-02T03:25:06.984Z,0.50
2023-04-02T03:27:40.175Z,0.70
2023-04-02T03:30:27.464Z,0.50
2023-04-02T03:33:03.457Z,0.50
2023-04-02T03:35:38.355Z,0.40
2023-04-02T03:38:12.828Z,0.50
2023-04-02T03:40:50.147Z,0.37
2023-04-02T03:43:23.805Z,0.70
2023-04-02T03:46:18.256Z,0.50
2023-04-02T03:48:52.317Z,0.40
2023-04-02T03:51:24.633Z,0.50
2023-04-02T03:53:53.111Z,0.50
2023-04-02T03:56:28.508Z,0.50
2023-04-02T03:59:07.389Z,0.40
2023-04-02T04:01:40.642Z,0.60
2023-04-02T04:04:14.617Z,0.50
2023-04-02T04:06:44.201Z,0.53
2023-04-02T04:09:19.521Z,0.60
2023-04-02T04:11:50.796Z,0.50
2023-04-02T04:14:21.762Z,0.60
2023-04-02T04:16:54.868Z,0.60
2023-04-02T04:19:35.379Z,0.70
2023-04-02T04:22:11.541Z,0.60
2023-04-02T04:24:40.004Z,0.57
2023-04-02T04:27:20.434Z,0.60
2023-04-02T04:29:54.671Z,0.60
2023-04-02T04:32:32.010Z,0.77
2023-04-02T04:35:15.966Z,0.60
2023-04-02T04:37:49.431Z,0.50
2023-04-02T04:40:23.784Z,0.60
2023-04-02T04:42:58.937Z,0.93
2023-04-02T04:45:42.693Z,0.90
2023-04-02T04:48:17.093Z,0.63
2023-04-02T04:50:51.495Z,0.60
2023-04-02T04:53:24.363Z,0.67
2023-04-02T04:55:59.684Z,0.67
2023-04-02T04:58:43.126Z,0.57
2023-04-02T05:01:17.531Z,0.50
2023-04-02T05:03:52.489Z,0.50
2023-04-02T05:06:33.735Z,0.63
2023-04-02T05:09:08.653Z,0.70
2023-04-02T05:11:41.586Z,0.40
2023-04-02T05:14:20.243Z,0.70
2023-04-02T05:16:54.073Z,0.40
2023-04-02T05:19:29.039Z,0.50
2023-04-02T05:22:03.307Z,0.50
2023-04-02T05:24:40.658Z,0.60
2023-04-02T05:27:21.276Z,0.50
2023-04-02T05:29:57.262Z,0.37
2023-04-02T05:32:31.280Z,0.60
2023-04-02T05:35:00.467Z,0.60
2023-04-02T05:37:31.685Z,0.50
2023-04-02T05:40:14.665Z,0.63
2023-04-02T05:42:49.338Z,0.70
2023-04-02T05:45:25.482Z,0.80
2023-04-02T05:48:00.106Z,0.80
2023-04-02T05:50:37.547Z,0.80
2023-04-02T05:53:16.892Z,0.60
2023-04-02T05:55:53.544Z,0.70
2023-04-02T06:01:20.952Z,0.70
2023-04-02T06:04:00.491Z,0.80
2023-04-02T06:06:50.082Z,0.73
2023-04-02T06:09:25.681Z,0.80
2023-04-02T06:11:58.700Z,0.60
2023-04-02T06:14:26.773Z,0.70
2023-04-02T06:16:55.883Z,0.90
2023-04-02T06:19:28.647Z,0.80
2023-04-02T06:22:01.484Z,0.80
2023-04-02T06:24:33.433Z,0.70
2023-04-02T06:27:06.912Z,0.60
2023-04-02T06:29:39.938Z,0.63
2023-04-02T06:32:13.641Z,0.63
2023-04-02T06:34:45.841Z,0.60
2023-04-02T06:37:24.618Z,0.50
2023-04-02T06:40:01.622Z,1.00
2023-04-02T06:42:34.035Z,0.70
2023-04-02T06:45:02.536Z,0.63
2023-04-02T06:48:04.869Z,0.60
2023-04-02T06:50:47.077Z,0.90
2023-04-02T06:53:23.437Z,0.80
2023-04-02T06:56:01.634Z,0.63
2023-04-02T06:58:31.791Z,0.50
2023-04-02T07:01:01.369Z,0.83
2023-04-02T07:03:43.659Z,0.77
2023-04-02T07:06:22.604Z,0.80
2023-04-02T07:08:53.322Z,0.90
2023-04-02T07:11:25.012Z,0.87
2023-04-02T07:13:56.504Z,0.80
2023-04-02T07:16:28.493Z,1.00
2023-04-02T07:18:58.673Z,0.90
2023-04-02T07:21:29.047Z,0.80
2023-04-02T07:24:00.798Z,1.30
2023-04-02T07:26:30.346Z,0.70
2023-04-02T07:28:58.440Z,0.70
2023-04-02T07:31:28.546Z,0.50
2023-04-02T07:34:00.139Z,0.70
2023-04-02T07:36:30.021Z,0.80
2023-04-02T07:38:58.122Z,0.70
2023-04-02T07:41:26.412Z,0.90
2023-04-02T07:43:55.731Z,0.77
2023-04-02T07:46:24.575Z,1.00
2023-04-02T07:48:52.625Z,0.90
2023-04-02T07:51:22.601Z,1.27
2023-04-02T07:53:55.720Z,0.90
2023-04-02T07:56:25.533Z,0.73
2023-04-02T07:58:55.281Z,1.13
2023-04-02T08:01:25.692Z,1.10
2023-04-02T08:03:55.075Z,0.80
2023-04-02T08:06:24.277Z,1.17
2023-04-02T08:08:53.484Z,1.00
2023-04-02T08:11:21.521Z,0.90
2023-04-02T08:13:49.494Z,1.27
2023-04-02T08:16:18.957Z,1.00
2023-04-02T08:18:47.636Z,0.90
2023-04-02T08:21:16.637Z,1.20
2023-04-02T08:23:44.922Z,0.90
2023-04-02T08:26:18.371Z,0.97
2023-04-02T08:28:46.752Z,1.10
2023-04-02T08:31:14.875Z,0.97
2023-04-02T08:33:44.470Z,1.30
2023-04-02T08:36:17.407Z,0.90
2023-04-02T08:38:45.659Z,0.80
2023-04-02T08:41:24.595Z,0.90
2023-04-02T08:44:03.467Z,1.60
2023-04-02T08:46:38.236Z,1.00
2023-04-02T08:49:14.412Z,0.87
2023-04-02T08:51:42.801Z,1.20
2023-04-02T08:54:19.241Z,0.80
2023-04-02T08:56:53.020Z,1.17
2023-04-02T08:59:31.790Z,0.90
2023-04-02T09:02:06.605Z,0.90
2023-04-02T09:04:36.886Z,0.90
2023-04-02T09:07:05.420Z,1.00
2023-04-02T09:09:36.908Z,0.87
2023-04-02T09:12:06.377Z,0.90
2023-04-02T09:14:43.217Z,0.80
2023-04-02T09:17:18.575Z,0.90
2023-04-02T09:19:55.391Z,1.00
2023-04-02T09:22:25.712Z,0.90
2023-04-02T09:24:54.309Z,1.07
2023-04-02T09:27:25.743Z,0.90
2023-04-02T09:29:56.506Z,1.00
2023-04-02T09:32:38.350Z,0.70
2023-04-02T09:35:25.593Z,1.03
2023-04-02T09:38:20.073Z,1.10
2023-04-02T09:40:51.504Z,0.83
2023-04-02T09:43:22.292Z,0.70
2023-04-02T09:45:59.307Z,0.90
2023-04-02T09:48:31.190Z,0.80
2023-04-02T09:51:13.431Z,0.80
2023-04-02T09:53:43.227Z,0.83
2023-04-02T09:56:17.131Z,0.80
2023-04-02T09:58:45.975Z,1.10
2023-04-02T10:01:35.692Z,0.90
2023-04-02T10:04:07.206Z,1.00
2023-04-02T10:06:36.655Z,1.00
2023-04-02T10:09:29.879Z,0.80
2023-04-02T10:11:59.996Z,0.70
2023-04-02T10:14:32.154Z,0.60
2023-04-02T10:17:06.544Z,0.80
2023-04-02T10:19:38.615Z,0.60
2023-04-02T10:22:14.799Z,1.20
2023-04-02T10:24:42.997Z,0.90
2023-04-02T10:27:22.731Z,0.90
2023-04-02T10:30:03.975Z,0.90
2023-04-02T10:32:38.246Z,0.70
2023-04-02T10:35:16.084Z,1.17
2023-04-02T10:38:03.352Z,0.90
2023-04-02T10:40:36.541Z,0.80
2023-04-02T10:43:45.551Z,0.70
2023-04-02T10:46:21.365Z,0.80
2023-04-02T10:49:02.312Z,1.00
2023-04-02T10:51:38.238Z,0.90
2023-04-02T10:54:28.012Z,2.40
2023-04-02T10:57:01.874Z,0.80
2023-04-02T10:59:35.484Z,0.80
2023-04-02T11:02:13.584Z,0.60
2023-04-02T11:04:45.634Z,1.30
2023-04-02T11:07:18.846Z,0.70
2023-04-02T11:09:51.971Z,0.63
2023-04-02T11:12:25.552Z,0.60
2023-04-02T11:14:55.385Z,1.50
2023-04-02T11:17:24.339Z,0.60
2023-04-02T11:19:52.752Z,0.50
2023-04-02T11:22:22.794Z,0.50
2023-04-02T11:24:53.446Z,0.60
2023-04-02T11:27:28.602Z,0.60
2023-04-02T11:30:04.371Z,0.60
2023-04-02T11:32:39.510Z,0.70
2023-04-02T11:35:27.788Z,0.60
2023-04-02T11:37:57.766Z,0.30
2023-04-02T11:40:49.348Z,0.60
2023-04-02T11:43:52.606Z,0.50
2023-04-02T11:46:46.462Z,0.50
2023-04-02T11:49:37.372Z,0.50
2023-04-02T11:52:19.639Z,1.10
2023-04-02T11:54:55.890Z,1.50
2023-04-02T11:57:35.513Z,0.80
2023-04-02T12:00:20.183Z,0.60
2023-04-02T12:03:03.419Z,0.50
2023-04-02T12:05:37.665Z,0.70
2023-04-02T12:08:27.460Z,0.60
2023-04-02T12:11:02.293Z,0.93
2023-04-02T12:13:55.133Z,0.80
2023-04-02T12:16:24.217Z,1.67
2023-04-02T12:18:55.018Z,0.70
2023-04-02T12:21:24.906Z,0.80
2023-04-02T12:23:55.634Z,1.53
2023-04-02T12:26:32.040Z,0.93
2023-04-02T12:29:24.868Z,0.80
2023-04-02T12:31:54.153Z,0.80
2023-04-02T12:34:24.202Z,0.60
2023-04-02T12:36:53.971Z,0.73
2023-04-02T12:39:22.343Z,1.00
2023-04-02T12:41:50.394Z,0.80
2023-04-02T12:44:22.192Z,0.87
2023-04-02T12:46:52.233Z,0.80
2023-04-02T12:49:41.297Z,0.90
2023-04-02T12:52:12.877Z,0.90
2023-04-02T12:54:46.817Z,0.87
2023-04-02T12:57:32.360Z,0.80
2023-04-02T13:00:06.151Z,0.80
2023-04-02T13:02:45.303Z,0.90
2023-04-02T13:05:13.399Z,1.00
2023-04-02T13:07:42.651Z,1.00
2023-04-02T13:10:25.458Z,0.90
2023-04-02T13:12:57.432Z,1.00
2023-04-02T13:15:31.457Z,0.80
2023-04-02T13:18:08.820Z,1.00
2023-04-02T13:20:38.821Z,1.20
2023-04-02T13:23:25.560Z,1.27
2023-04-02T13:25:53.630Z,1.20
2023-04-02T13:28:22.131Z,3.10
2023-04-02T13:30:51.448Z,1.80
2023-04-02T13:33:20.417Z,1.30
2023-04-02T13:35:48.470Z,1.20
2023-04-02T13:38:17.050Z,1.30
2023-04-02T13:40:45.869Z,1.40
2023-04-02T13:43:19.581Z,1.73
2023-04-02T13:45:52.565Z,1.40
2023-04-02T13:48:24.383Z,1.47
2023-04-02T13:50:53.776Z,1.83
2023-04-02T13:53:28.302Z,1.60
2023-04-02T13:55:57.205Z,1.60
2023-04-02T13:58:25.924Z,1.47
2023-04-02T14:00:55.270Z,1.53
2023-04-02T14:03:24.559Z,1.70
2023-04-02T14:05:59.694Z,1.43
2023-04-02T14:08:38.046Z,1.60
2023-04-02T14:11:25.060Z,1.50
2023-04-02T14:14:19.399Z,1.37
2023-04-02T14:16:57.118Z,1.20
2023-04-02T14:19:36.631Z,1.40
2023-04-02T14:22:14.725Z,1.50
2023-04-02T14:24:53.670Z,1.50
2023-04-02T14:27:32.495Z,1.60
2023-04-02T14:30:05.731Z,1.70
2023-04-02T14:32:42.453Z,1.50
2023-04-02T14:35:18.622Z,2.50
2023-04-02T14:37:53.503Z,1.77
2023-04-02T14:40:28.182Z,1.50
2023-04-02T14:43:01.772Z,1.67
2023-04-02T14:45:42.689Z,1.60
2023-04-02T14:48:25.717Z,1.50
2023-04-02T14:50:59.343Z,1.60
2023-04-02T14:53:31.779Z,1.80
2023-04-02T14:56:03.168Z,1.70
2023-04-02T14:58:35.580Z,2.90
2023-04-02T15:01:07.625Z,2.47
2023-04-02T15:03:44.154Z,3.83
2023-04-02T15:06:16.114Z,1.57
2023-04-02T15:08:55.240Z,2.70
2023-04-02T15:11:34.790Z,4.97
2023-04-02T15:14:07.271Z,3.73
2023-04-02T15:16:36.589Z,1.83
2023-04-02T15:19:12.935Z,4.27
2023-04-02T15:22:08.826Z,1.50
2023-04-02T15:24:47.737Z,3.40
2023-04-02T15:27:37.608Z,1.93
2023-04-02T15:30:12.978Z,1.90
2023-04-02T15:32:42.378Z,1.57
2023-04-02T15:35:24.597Z,2.23
2023-04-02T15:38:01.104Z,3.43
2023-04-02T15:40:54.541Z,12.57
2023-04-02T15:43:29.198Z,2.03
2023-04-02T15:46:10.536Z,2.70
2023-04-02T15:49:02.883Z,5.30
2023-04-02T15:51:43.200Z,4.67
2023-04-02T15:54:26.954Z,3.70
2023-04-02T15:57:06.059Z,2.63
2023-04-02T15:59:59.245Z,2.33
2023-04-02T16:02:50.776Z,1.80
2023-04-02T16:05:28.037Z,1.77
2023-04-02T16:08:20.646Z,2.00
2023-04-02T16:10:48.947Z,2.00
2023-04-02T16:13:20.760Z,1.63
2023-04-02T16:15:54.004Z,2.43
2023-04-02T16:18:33.799Z,1.60
2023-04-02T16:21:03.877Z,1.57
2023-04-02T16:23:36.564Z,1.40
2023-04-02T16:26:18.306Z,1.57
2023-04-02T16:28:55.849Z,1.40
2023-04-02T16:31:32.859Z,1.60
2023-04-02T16:34:06.250Z,1.70
2023-04-02T16:36:46.432Z,2.17
2023-04-02T16:39:26.742Z,1.93
2023-04-02T16:42:05.308Z,1.80
2023-04-02T16:44:44.140Z,1.60
2023-04-02T16:47:48.251Z,1.63
2023-04-02T16:50:26.219Z,1.40
2023-04-02T16:53:00.315Z,1.23
2023-04-02T16:55:43.539Z,1.50
2023-04-02T16:58:27.180Z,1.63
2023-04-02T17:01:01.712Z,1.93
2023-04-02T17:03:45.686Z,1.60
2023-04-02T17:06:22.992Z,1.70
2023-04-02T17:09:02.040Z,1.90
2023-04-02T17:11:38.346Z,1.90
2023-04-02T17:14:07.787Z,1.63
2023-04-02T17:16:41.640Z,1.77
2023-04-02T17:19:12.319Z,2.10
2023-04-02T17:21:43.349Z,2.50
2023-04-02T17:24:24.166Z,2.73
2023-04-02T17:26:58.099Z,2.53
2023-04-02T17:29:33.618Z,2.97
2023-04-02T17:32:03.227Z,1.97
2023-04-02T17:34:31.267Z,2.90
2023-04-02T17:37:09.742Z,2.70
2023-04-02T17:39:43.541Z,2.40
2023-04-02T17:42:19.905Z,2.10
2023-04-02T17:45:02.038Z,2.03
2023-04-02T17:47:38.468Z,2.40
2023-04-02T17:50:35.133Z,2.60
2023-04-02T17:53:12.390Z,2.10
2023-04-02T17:55:49.937Z,2.50
2023-04-02T17:58:39.288Z,2.10
2023-04-02T18:01:12.769Z,3.43
2023-04-02T18:03:52.048Z,2.70
2023-04-02T18:06:23.672Z,3.40
2023-04-02T18:09:06.663Z,2.80
2023-04-02T18:11:47.007Z,3.10
2023-04-02T18:14:32.795Z,2.40
2023-04-02T18:17:09.633Z,3.10
2023-04-02T18:19:44.302Z,3.50
2023-04-02T18:22:23.904Z,3.50
2023-04-02T18:25:13.814Z,4.53
2023-04-02T18:28:04.152Z,3.97
2023-04-02T18:30:40.023Z,3.27
2023-04-02T18:33:30.585Z,3.40
2023-04-02T18:36:05.165Z,3.67
2023-04-02T18:38:43.274Z,3.50
2023-04-02T18:41:36.475Z,4.13
2023-04-02T18:44:19.278Z,3.53
2023-04-02T18:46:52.884Z,3.33
2023-04-02T18:49:29.701Z,3.67
2023-04-02T18:52:01.987Z,3.43
2023-04-02T18:54:34.424Z,3.27
2023-04-02T18:57:03.948Z,3.23
2023-04-02T18:59:39.005Z,3.70
2023-04-02T19:02:38.407Z,3.30
2023-04-02T19:05:13.746Z,12.20
2023-04-02T19:07:46.514Z,3.00
2023-04-02T19:10:29.978Z,3.17
2023-04-02T19:12:58.076Z,4.83
2023-04-02T19:15:36.466Z,6.43
2023-04-02T19:18:15.304Z,3.57
2023-04-02T19:20:50.732Z,2.80
2023-04-02T19:23:40.771Z,2.77
2023-04-02T19:26:13.066Z,2.70
2023-04-02T19:28:47.240Z,2.60
2023-04-02T19:31:25.816Z,2.37
2023-04-02T19:34:03.611Z,2.90
2023-04-02T19:36:41.781Z,2.60
2023-04-02T19:39:40.394Z,2.43
2023-04-02T19:42:14.626Z,2.50
2023-04-02T19:44:45.938Z,2.70
2023-04-02T19:47:14.728Z,2.60
2023-04-02T19:49:44.021Z,2.60
2023-04-02T19:52:12.137Z,2.60
2023-04-02T19:54:40.186Z,2.50
2023-04-02T19:57:08.360Z,2.50
2023-04-02T19:59:36.366Z,2.30
2023-04-02T20:02:07.085Z,2.53
2023-04-02T20:04:36.075Z,2.57
2023-04-02T20:07:05.666Z,2.40
2023-04-02T20:09:33.620Z,2.63
2023-04-02T20:12:01.556Z,3.00
2023-04-02T20:14:29.657Z,3.00
2023-04-02T20:16:57.677Z,3.00
2023-04-02T20:19:25.984Z,2.33
2023-04-02T20:21:53.915Z,2.90
2023-04-02T20:24:23.266Z,2.60
2023-04-02T20:26:51.365Z,2.50
2023-04-02T20:29:19.396Z,2.30
2023-04-02T20:31:47.702Z,2.97
2023-04-02T20:34:16.264Z,2.60
2023-04-02T20:36:45.687Z,2.40
2023-04-02T20:39:19.165Z,3.00
2023-04-02T20:41:49.057Z,2.20
2023-04-02T20:44:17.394Z,2.50
2023-04-02T20:46:45.449Z,2.60
2023-04-02T20:49:13.549Z,2.20
2023-04-02T20:51:44.143Z,2.23
2023-04-02T20:54:12.168Z,2.50
2023-04-02T20:56:40.197Z,2.60
2023-04-02T20:59:09.634Z,2.30
2023-04-02T21:01:37.722Z,2.17
2023-04-02T21:04:06.025Z,3.90
2023-04-02T21:06:35.440Z,4.10
2023-04-02T21:09:06.317Z,5.90
2023-04-02T21:11:37.205Z,2.47
2023-04-02T21:14:05.441Z,2.27
2023-04-02T21:16:35.269Z,2.27
2023-04-02T21:19:05.325Z,2.00
2023-04-02T21:21:33.794Z,2.50
2023-04-02T21:24:04.456Z,2.80
2023-04-02T21:26:34.929Z,2.30
2023-04-02T21:29:03.514Z,2.40
2023-04-02T21:31:36.939Z,2.47
2023-04-02T21:34:05.991Z,2.53
2023-04-02T21:36:35.998Z,2.70
2023-04-02T21:39:06.593Z,2.30
2023-04-02T21:41:36.561Z,2.30
2023-04-02T21:44:06.133Z,2.10
2023-04-02T21:46:39.065Z,2.20
2023-04-02T21:49:08.771Z,2.50
2023-04-02T21:51:38.391Z,2.30
2023-04-02T21:54:07.454Z,2.40
2023-04-02T21:56:38.156Z,2.83
2023-04-02T21:59:07.577Z,2.63
2023-04-02T22:01:39.349Z,2.40
2023-04-02T22:04:08.816Z,2.33
2023-04-02T22:06:39.353Z,2.47
2023-04-02T22:09:10.413Z,3.23
2023-04-02T22:11:41.477Z,2.90
2023-04-02T22:14:09.925Z,3.13
2023-04-02T22:16:40.585Z,3.60
2023-04-02T22:19:11.038Z,2.50
2023-04-02T22:21:40.078Z,2.97
2023-04-02T22:24:10.330Z,2.90
2023-04-02T22:26:40.211Z,3.00
2023-04-02T22:29:08.574Z,2.30
2023-04-02T22:31:36.757Z,2.13
2023-04-02T22:34:07.405Z,2.27
2023-04-02T22:36:36.353Z,2.03
2023-04-02T22:39:06.788Z,8.20
2023-04-02T22:41:35.586Z,2.23
2023-04-02T22:44:03.757Z,3.00
2023-04-02T22:46:32.081Z,2.50
2023-04-02T22:49:00.377Z,2.50
2023-04-02T22:51:31.192Z,2.53
2023-04-02T22:53:59.102Z,2.00
2023-04-02T22:56:31.728Z,2.23
2023-04-02T22:58:59.901Z,2.30
2023-04-02T23:01:30.863Z,2.33
2023-04-02T23:03:59.428Z,2.00
2023-04-02T23:06:29.554Z,2.00
2023-04-02T23:08:57.651Z,2.23
2023-04-02T23:11:27.649Z,2.80
2023-04-02T23:13:58.363Z,2.13
2023-04-02T23:16:27.775Z,2.20
2023-04-02T23:18:56.895Z,2.03
2023-04-02T23:21:25.529Z,2.33
2023-04-02T23:23:54.949Z,2.37
2023-04-02T23:26:24.447Z,2.03
2023-04-02T23:28:52.646Z,2.27
2023-04-02T23:31:23.264Z,1.97
2023-04-02T23:33:51.838Z,2.07
2023-04-02T23:36:23.354Z,2.00
2023-04-02T23:38:55.500Z,2.10
2023-04-02T23:41:26.723Z,2.43
2023-04-02T23:43:55.812Z,2.20
2023-04-02T23:46:25.038Z,2.00
2023-04-02T23:48:53.107Z,2.63
2023-04-02T23:51:21.194Z,2.33
2023-04-02T23:53:49.865Z,2.47
2023-04-02T23:56:19.479Z,2.70
2023-04-02T23:58:47.593Z,3.00
